sensor_id;sensor_type;location;lat;lon;timestamp;temperature;humidity
25248;DHT22;13191;47.472;11.214;2023-05-20T00:01:54;10.50;99.90
25248;DHT22;13191;47.472;11.214;2023-05-20T00:04:19;10.50;99.90
25248;DHT22;13191;47.472;11.214;2023-05-20T00:06:45;10.40;99.90
25248;DHT22;13191;47.472;11.214;2023-05-20T00:09:11;10.40;99.90
25248;DHT22;13191;47.472;11.214;2023-05-20T00:11:36;10.40;99.90
25248;DHT22;13191;47.472;11.214;2023-05-20T00:14:02;10.40;99.90
25248;DHT22;13191;47.472;11.214;2023-05-20T00:16:27;10.40;99.90
25248;DHT22;13191;47.472;11.214;2023-05-20T00:18:52;10.40;99.90
25248;DHT22;13191;47.472;11.214;2023-05-20T00:21:18;10.40;99.90
25248;DHT22;13191;47.472;11.214;2023-05-20T00:23:45;10.40;99.90
25248;DHT22;13191;47.472;11.214;2023-05-20T00:26:11;10.50;99.90
25248;DHT22;13191;47.472;11.214;2023-05-20T00:28:36;10.50;99.90
25248;DHT22;13191;47.472;11.214;2023-05-20T00:31:01;10.50;99.90
25248;DHT22;13191;47.472;11.214;2023-05-20T00:33:27;10.50;99.90
25248;DHT22;13191;47.472;11.214;2023-05-20T00:35:53;10.50;99.90
25248;DHT22;13191;47.472;11.214;2023-05-20T00:38:18;10.50;99.90
25248;DHT22;13191;47.472;11.214;2023-05-20T00:40:44;10.50;99.90
25248;DHT22;13191;47.472;11.214;2023-05-20T00:43:09;10.50;99.90
25248;DHT22;13191;47.472;11.214;2023-05-20T00:45:35;10.50;99.90
25248;DHT22;13191;47.472;11.214;2023-05-20T00:48:01;10.50;99.90
25248;DHT22;13191;47.472;11.214;2023-05-20T00:50:28;10.40;99.90
25248;DHT22;13191;47.472;11.214;2023-05-20T00:52:53;10.40;99.90
25248;DHT22;13191;47.472;11.214;2023-05-20T00:55:20;10.40;99.90
25248;DHT22;13191;47.472;11.214;2023-05-20T00:57:46;10.40;99.90
25248;DHT22;13191;47.472;11.214;2023-05-20T01:00:11;10.40;99.90
25248;DHT22;13191;47.472;11.214;2023-05-20T01:02:38;10.40;99.90
25248;DHT22;13191;47.472;11.214;2023-05-20T01:05:03;10.30;99.90
25248;DHT22;13191;47.472;11.214;2023-05-20T01:07:29;10.30;99.90
25248;DHT22;13191;47.472;11.214;2023-05-20T01:09:55;10.30;99.90
25248;DHT22;13191;47.472;11.214;2023-05-20T01:12:37;10.20;99.90
25248;DHT22;13191;47.472;11.214;2023-05-20T01:15:04;10.30;99.90
25248;DHT22;13191;47.472;11.214;2023-05-20T01:17:31;10.20;99.90
25248;DHT22;13191;47.472;11.214;2023-05-20T01:19:57;10.20;99.90
25248;DHT22;13191;47.472;11.214;2023-05-20T01:22:24;10.20;99.90
25248;DHT22;13191;47.472;11.214;2023-05-20T01:24:50;10.20;99.90
25248;DHT22;13191;47.472;11.214;2023-05-20T01:27:18;10.10;99.90
25248;DHT22;13191;47.472;11.214;2023-05-20T01:29:45;10.10;99.90
25248;DHT22;13191;47.472;11.214;2023-05-20T01:32:14;10.00;99.90
25248;DHT22;13191;47.472;11.214;2023-05-20T01:34:41;10.00;99.90
25248;DHT22;13191;47.472;11.214;2023-05-20T01:37:08;10.00;99.90
25248;DHT22;13191;47.472;11.214;2023-05-20T01:39:35;9.90;99.90
25248;DHT22;13191;47.472;11.214;2023-05-20T01:42:02;9.90;99.90
25248;DHT22;13191;47.472;11.214;2023-05-20T01:44:28;9.80;99.90
25248;DHT22;13191;47.472;11.214;2023-05-20T01:46:53;9.90;99.90
25248;DHT22;13191;47.472;11.214;2023-05-20T01:49:19;9.90;99.90
25248;DHT22;13191;47.472;11.214;2023-05-20T01:51:45;9.90;99.90
25248;DHT22;13191;47.472;11.214;2023-05-20T01:54:10;9.90;99.90
25248;DHT22;13191;47.472;11.214;2023-05-20T01:56:35;9.90;99.90
25248;DHT22;13191;47.472;11.214;2023-05-20T01:59:01;9.90;99.90
25248;DHT22;13191;47.472;11.214;2023-05-20T02:01:26;9.90;99.90
25248;DHT22;13191;47.472;11.214;2023-05-20T02:03:52;9.90;99.90
25248;DHT22;13191;47.472;11.214;2023-05-20T02:06:17;9.90;99.90
25248;DHT22;13191;47.472;11.214;2023-05-20T02:08:43;9.80;99.90
25248;DHT22;13191;47.472;11.214;2023-05-20T02:11:08;9.90;99.90
25248;DHT22;13191;47.472;11.214;2023-05-20T02:13:34;9.80;99.90
25248;DHT22;13191;47.472;11.214;2023-05-20T02:15:59;9.80;99.90
25248;DHT22;13191;47.472;11.214;2023-05-20T02:18:25;9.80;99.90
25248;DHT22;13191;47.472;11.214;2023-05-20T02:20:51;9.70;99.90
25248;DHT22;13191;47.472;11.214;2023-05-20T02:23:16;9.80;99.90
25248;DHT22;13191;47.472;11.214;2023-05-20T02:25:42;9.80;99.90
25248;DHT22;13191;47.472;11.214;2023-05-20T02:28:08;9.80;99.90
25248;DHT22;13191;47.472;11.214;2023-05-20T02:30:38;9.70;99.90
25248;DHT22;13191;47.472;11.214;2023-05-20T02:33:03;9.70;99.90
25248;DHT22;13191;47.472;11.214;2023-05-20T02:35:29;9.70;99.90
25248;DHT22;13191;47.472;11.214;2023-05-20T02:37:54;9.70;99.90
25248;DHT22;13191;47.472;11.214;2023-05-20T02:40:20;9.70;99.90
25248;DHT22;13191;47.472;11.214;2023-05-20T02:42:45;9.70;99.90
25248;DHT22;13191;47.472;11.214;2023-05-20T02:45:11;9.60;99.90
25248;DHT22;13191;47.472;11.214;2023-05-20T02:47:36;9.60;99.90
25248;DHT22;13191;47.472;11.214;2023-05-20T02:50:02;9.50;99.90
25248;DHT22;13191;47.472;11.214;2023-05-20T02:52:27;9.50;99.90
25248;DHT22;13191;47.472;11.214;2023-05-20T02:54:53;9.40;99.90
25248;DHT22;13191;47.472;11.214;2023-05-20T02:57:18;9.30;99.90
25248;DHT22;13191;47.472;11.214;2023-05-20T02:59:43;9.20;99.90
25248;DHT22;13191;47.472;11.214;2023-05-20T03:02:10;9.20;99.90
25248;DHT22;13191;47.472;11.214;2023-05-20T03:04:35;9.20;99.90
25248;DHT22;13191;47.472;11.214;2023-05-20T03:07:06;9.20;99.90
25248;DHT22;13191;47.472;11.214;2023-05-20T03:09:32;9.20;99.90
25248;DHT22;13191;47.472;11.214;2023-05-20T03:11:57;9.20;99.90
25248;DHT22;13191;47.472;11.214;2023-05-20T03:14:23;9.20;99.90
25248;DHT22;13191;47.472;11.214;2023-05-20T03:16:48;9.20;99.90
25248;DHT22;13191;47.472;11.214;2023-05-20T03:19:13;9.20;99.90
25248;DHT22;13191;47.472;11.214;2023-05-20T03:21:40;9.20;99.90
25248;DHT22;13191;47.472;11.214;2023-05-20T03:24:05;9.10;99.90
25248;DHT22;13191;47.472;11.214;2023-05-20T03:26:31;9.10;99.90
25248;DHT22;13191;47.472;11.214;2023-05-20T03:28:58;9.10;99.90
25248;DHT22;13191;47.472;11.214;2023-05-20T03:31:23;9.00;99.90
25248;DHT22;13191;47.472;11.214;2023-05-20T03:33:50;9.00;99.90
25248;DHT22;13191;47.472;11.214;2023-05-20T03:36:15;9.00;99.90
25248;DHT22;13191;47.472;11.214;2023-05-20T03:38:41;9.00;99.90
25248;DHT22;13191;47.472;11.214;2023-05-20T03:41:06;9.00;99.90
25248;DHT22;13191;47.472;11.214;2023-05-20T03:43:31;9.00;99.90
25248;DHT22;13191;47.472;11.214;2023-05-20T03:45:57;8.90;99.90
25248;DHT22;13191;47.472;11.214;2023-05-20T03:48:22;8.80;99.90
25248;DHT22;13191;47.472;11.214;2023-05-20T03:50:48;8.80;99.90
25248;DHT22;13191;47.472;11.214;2023-05-20T03:53:14;8.70;99.90
25248;DHT22;13191;47.472;11.214;2023-05-20T03:55:40;8.60;99.90
25248;DHT22;13191;47.472;11.214;2023-05-20T03:58:05;8.50;99.90
25248;DHT22;13191;47.472;11.214;2023-05-20T04:00:31;8.50;99.90
25248;DHT22;13191;47.472;11.214;2023-05-20T04:02:57;8.50;99.90
25248;DHT22;13191;47.472;11.214;2023-05-20T04:05:22;8.40;99.90
25248;DHT22;13191;47.472;11.214;2023-05-20T04:07:48;8.30;99.90
25248;DHT22;13191;47.472;11.214;2023-05-20T04:10:14;8.20;99.90
25248;DHT22;13191;47.472;11.214;2023-05-20T04:12:39;8.20;99.90
25248;DHT22;13191;47.472;11.214;2023-05-20T04:15:05;8.20;99.90
25248;DHT22;13191;47.472;11.214;2023-05-20T04:17:31;8.20;99.90
25248;DHT22;13191;47.472;11.214;2023-05-20T04:19:57;8.30;99.90
25248;DHT22;13191;47.472;11.214;2023-05-20T04:22:24;8.30;99.90
25248;DHT22;13191;47.472;11.214;2023-05-20T04:24:49;8.40;99.90
25248;DHT22;13191;47.472;11.214;2023-05-20T04:27:15;8.40;99.90
25248;DHT22;13191;47.472;11.214;2023-05-20T04:29:41;8.50;99.90
25248;DHT22;13191;47.472;11.214;2023-05-20T04:32:13;8.50;99.90
25248;DHT22;13191;47.472;11.214;2023-05-20T04:34:39;8.50;99.90
25248;DHT22;13191;47.472;11.214;2023-05-20T04:37:04;8.50;99.90
25248;DHT22;13191;47.472;11.214;2023-05-20T04:39:32;8.50;99.90
25248;DHT22;13191;47.472;11.214;2023-05-20T04:41:57;8.60;99.90
25248;DHT22;13191;47.472;11.214;2023-05-20T04:44:23;8.60;99.90
25248;DHT22;13191;47.472;11.214;2023-05-20T04:46:50;8.50;99.90
25248;DHT22;13191;47.472;11.214;2023-05-20T04:49:16;8.50;99.90
25248;DHT22;13191;47.472;11.214;2023-05-20T04:51:42;8.60;99.90
25248;DHT22;13191;47.472;11.214;2023-05-20T04:54:08;8.60;99.90
25248;DHT22;13191;47.472;11.214;2023-05-20T04:56:33;8.70;99.90
25248;DHT22;13191;47.472;11.214;2023-05-20T04:58:59;8.80;99.90
25248;DHT22;13191;47.472;11.214;2023-05-20T05:01:24;8.90;99.90
25248;DHT22;13191;47.472;11.214;2023-05-20T05:03:50;8.90;99.90
25248;DHT22;13191;47.472;11.214;2023-05-20T05:06:15;9.00;99.90
25248;DHT22;13191;47.472;11.214;2023-05-20T05:08:41;9.00;99.90
25248;DHT22;13191;47.472;11.214;2023-05-20T05:11:07;9.10;99.90
25248;DHT22;13191;47.472;11.214;2023-05-20T05:13:32;9.10;99.90
25248;DHT22;13191;47.472;11.214;2023-05-20T05:16:01;9.10;99.90
25248;DHT22;13191;47.472;11.214;2023-05-20T05:18:26;9.20;99.90
25248;DHT22;13191;47.472;11.214;2023-05-20T05:21:02;9.20;99.90
25248;DHT22;13191;47.472;11.214;2023-05-20T05:23:27;9.20;99.90
25248;DHT22;13191;47.472;11.214;2023-05-20T05:25:53;9.30;99.90
25248;DHT22;13191;47.472;11.214;2023-05-20T05:28:18;9.30;99.90
25248;DHT22;13191;47.472;11.214;2023-05-20T05:30:44;9.40;99.90
25248;DHT22;13191;47.472;11.214;2023-05-20T05:33:09;9.40;99.90
25248;DHT22;13191;47.472;11.214;2023-05-20T05:35:35;9.40;99.90
25248;DHT22;13191;47.472;11.214;2023-05-20T05:38:00;9.50;99.90
25248;DHT22;13191;47.472;11.214;2023-05-20T05:40:26;9.50;99.90
25248;DHT22;13191;47.472;11.214;2023-05-20T05:42:51;9.60;99.90
25248;DHT22;13191;47.472;11.214;2023-05-20T05:45:17;9.60;99.90
25248;DHT22;13191;47.472;11.214;2023-05-20T05:47:42;9.70;99.90
25248;DHT22;13191;47.472;11.214;2023-05-20T05:50:08;9.70;99.90
25248;DHT22;13191;47.472;11.214;2023-05-20T05:52:34;9.70;99.90
25248;DHT22;13191;47.472;11.214;2023-05-20T05:55:00;9.70;99.90
25248;DHT22;13191;47.472;11.214;2023-05-20T05:57:26;9.80;99.90
25248;DHT22;13191;47.472;11.214;2023-05-20T05:59:51;9.80;99.90
25248;DHT22;13191;47.472;11.214;2023-05-20T06:02:17;9.90;99.90
25248;DHT22;13191;47.472;11.214;2023-05-20T06:04:42;9.90;99.90
25248;DHT22;13191;47.472;11.214;2023-05-20T06:07:08;10.00;99.90
25248;DHT22;13191;47.472;11.214;2023-05-20T06:09:33;10.10;99.90
25248;DHT22;13191;47.472;11.214;2023-05-20T06:11:59;10.10;99.90
25248;DHT22;13191;47.472;11.214;2023-05-20T06:14:25;10.20;99.90
25248;DHT22;13191;47.472;11.214;2023-05-20T06:16:50;10.20;99.90
25248;DHT22;13191;47.472;11.214;2023-05-20T06:19:15;10.30;99.90
25248;DHT22;13191;47.472;11.214;2023-05-20T06:21:41;10.30;99.90
25248;DHT22;13191;47.472;11.214;2023-05-20T06:24:06;10.40;99.90
25248;DHT22;13191;47.472;11.214;2023-05-20T06:26:32;10.40;99.90
25248;DHT22;13191;47.472;11.214;2023-05-20T06:28:57;10.40;99.90
25248;DHT22;13191;47.472;11.214;2023-05-20T06:31:23;10.50;99.90
25248;DHT22;13191;47.472;11.214;2023-05-20T06:33:49;10.50;99.90
25248;DHT22;13191;47.472;11.214;2023-05-20T06:36:15;10.60;99.90
25248;DHT22;13191;47.472;11.214;2023-05-20T06:38:41;10.60;99.90
25248;DHT22;13191;47.472;11.214;2023-05-20T06:41:07;10.70;99.90
25248;DHT22;13191;47.472;11.214;2023-05-20T06:43:32;10.80;99.90
25248;DHT22;13191;47.472;11.214;2023-05-20T06:45:58;10.80;99.90
25248;DHT22;13191;47.472;11.214;2023-05-20T06:48:23;10.90;99.90
25248;DHT22;13191;47.472;11.214;2023-05-20T06:50:49;10.90;99.90
25248;DHT22;13191;47.472;11.214;2023-05-20T06:53:14;10.90;99.90
25248;DHT22;13191;47.472;11.214;2023-05-20T06:55:41;10.90;99.90
25248;DHT22;13191;47.472;11.214;2023-05-20T06:58:06;11.00;99.90
25248;DHT22;13191;47.472;11.214;2023-05-20T07:00:32;11.00;99.90
25248;DHT22;13191;47.472;11.214;2023-05-20T07:02:57;11.10;99.90
25248;DHT22;13191;47.472;11.214;2023-05-20T07:05:23;11.10;99.90
25248;DHT22;13191;47.472;11.214;2023-05-20T07:07:48;11.20;99.90
25248;DHT22;13191;47.472;11.214;2023-05-20T07:10:14;11.20;99.90
25248;DHT22;13191;47.472;11.214;2023-05-20T07:12:39;11.20;99.90
25248;DHT22;13191;47.472;11.214;2023-05-20T07:15:05;11.20;99.90
25248;DHT22;13191;47.472;11.214;2023-05-20T07:17:31;11.30;99.90
25248;DHT22;13191;47.472;11.214;2023-05-20T07:19:56;11.30;99.90
25248;DHT22;13191;47.472;11.214;2023-05-20T07:22:21;11.40;99.90
25248;DHT22;13191;47.472;11.214;2023-05-20T07:24:47;11.50;99.90
25248;DHT22;13191;47.472;11.214;2023-05-20T07:27:13;11.60;99.90
25248;DHT22;13191;47.472;11.214;2023-05-20T07:29:38;11.80;99.90
25248;DHT22;13191;47.472;11.214;2023-05-20T07:32:04;11.90;99.90
25248;DHT22;13191;47.472;11.214;2023-05-20T07:34:29;12.00;99.90
25248;DHT22;13191;47.472;11.214;2023-05-20T07:36:55;12.20;99.90
25248;DHT22;13191;47.472;11.214;2023-05-20T07:39:21;12.30;99.90
25248;DHT22;13191;47.472;11.214;2023-05-20T07:41:46;12.50;99.90
25248;DHT22;13191;47.472;11.214;2023-05-20T07:44:12;12.60;99.90
25248;DHT22;13191;47.472;11.214;2023-05-20T07:46:37;12.70;99.90
25248;DHT22;13191;47.472;11.214;2023-05-20T07:49:03;12.90;99.90
25248;DHT22;13191;47.472;11.214;2023-05-20T07:51:29;13.20;99.90
25248;DHT22;13191;47.472;11.214;2023-05-20T07:53:55;13.20;99.90
25248;DHT22;13191;47.472;11.214;2023-05-20T07:56:20;13.40;99.90
25248;DHT22;13191;47.472;11.214;2023-05-20T07:58:53;13.60;99.90
25248;DHT22;13191;47.472;11.214;2023-05-20T08:03:44;14.10;99.90
25248;DHT22;13191;47.472;11.214;2023-05-20T08:06:10;14.40;99.90
25248;DHT22;13191;47.472;11.214;2023-05-20T08:08:36;14.50;99.90
25248;DHT22;13191;47.472;11.214;2023-05-20T08:13:28;14.90;99.90
25248;DHT22;13191;47.472;11.214;2023-05-20T08:15:53;14.90;99.90
25248;DHT22;13191;47.472;11.214;2023-05-20T08:20:45;15.10;99.90
25248;DHT22;13191;47.472;11.214;2023-05-20T08:23:11;15.30;99.90
25248;DHT22;13191;47.472;11.214;2023-05-20T08:25:36;15.50;99.90
25248;DHT22;13191;47.472;11.214;2023-05-20T08:28:02;15.50;99.90
25248;DHT22;13191;47.472;11.214;2023-05-20T08:32:55;15.80;99.90
25248;DHT22;13191;47.472;11.214;2023-05-20T08:35:24;15.90;99.90
25248;DHT22;13191;47.472;11.214;2023-05-20T08:37:50;16.00;99.90
25248;DHT22;13191;47.472;11.214;2023-05-20T08:40:18;16.10;99.90
25248;DHT22;13191;47.472;11.214;2023-05-20T08:42:45;16.10;99.90
25248;DHT22;13191;47.472;11.214;2023-05-20T08:45:12;16.10;99.90
25248;DHT22;13191;47.472;11.214;2023-05-20T08:47:40;16.20;99.90
25248;DHT22;13191;47.472;11.214;2023-05-20T08:50:07;16.30;99.90
25248;DHT22;13191;47.472;11.214;2023-05-20T08:52:34;16.40;99.90
25248;DHT22;13191;47.472;11.214;2023-05-20T08:54:59;16.50;99.90
25248;DHT22;13191;47.472;11.214;2023-05-20T08:57:27;16.60;99.90
25248;DHT22;13191;47.472;11.214;2023-05-20T08:59:52;16.70;99.90
25248;DHT22;13191;47.472;11.214;2023-05-20T09:02:18;16.70;99.90
25248;DHT22;13191;47.472;11.214;2023-05-20T09:04:43;16.70;99.90
25248;DHT22;13191;47.472;11.214;2023-05-20T09:07:09;16.70;99.90
25248;DHT22;13191;47.472;11.214;2023-05-20T09:09:34;16.80;99.90
25248;DHT22;13191;47.472;11.214;2023-05-20T09:12:00;17.00;99.90
25248;DHT22;13191;47.472;11.214;2023-05-20T09:14:27;17.10;99.90
25248;DHT22;13191;47.472;11.214;2023-05-20T09:16:53;17.10;99.90
25248;DHT22;13191;47.472;11.214;2023-05-20T09:19:21;17.20;99.90
25248;DHT22;13191;47.472;11.214;2023-05-20T09:21:48;17.30;99.90
25248;DHT22;13191;47.472;11.214;2023-05-20T09:24:13;17.40;99.90
25248;DHT22;13191;47.472;11.214;2023-05-20T09:26:39;17.50;99.90
25248;DHT22;13191;47.472;11.214;2023-05-20T09:29:04;17.70;99.90
25248;DHT22;13191;47.472;11.214;2023-05-20T09:31:30;17.80;99.90
25248;DHT22;13191;47.472;11.214;2023-05-20T09:33:58;17.90;99.90
25248;DHT22;13191;47.472;11.214;2023-05-20T09:36:24;18.00;99.90
25248;DHT22;13191;47.472;11.214;2023-05-20T09:38:50;17.90;99.90
25248;DHT22;13191;47.472;11.214;2023-05-20T09:41:17;18.10;99.90
25248;DHT22;13191;47.472;11.214;2023-05-20T09:43:43;18.30;99.90
25248;DHT22;13191;47.472;11.214;2023-05-20T09:46:09;18.40;99.90
25248;DHT22;13191;47.472;11.214;2023-05-20T09:48:35;18.50;99.90
25248;DHT22;13191;47.472;11.214;2023-05-20T09:51:02;18.50;99.90
25248;DHT22;13191;47.472;11.214;2023-05-20T09:53:28;18.50;99.90
25248;DHT22;13191;47.472;11.214;2023-05-20T09:55:54;18.60;99.90
25248;DHT22;13191;47.472;11.214;2023-05-20T09:58:20;18.70;99.90
25248;DHT22;13191;47.472;11.214;2023-05-20T10:00:46;18.70;99.90
25248;DHT22;13191;47.472;11.214;2023-05-20T10:03:12;18.70;99.90
25248;DHT22;13191;47.472;11.214;2023-05-20T10:05:39;18.70;99.90
25248;DHT22;13191;47.472;11.214;2023-05-20T10:08:18;18.80;99.90
25248;DHT22;13191;47.472;11.214;2023-05-20T10:15:57;19.00;99.90
25248;DHT22;13191;47.472;11.214;2023-05-20T10:18:30;19.10;99.90
25248;DHT22;13191;47.472;11.214;2023-05-20T10:20:59;19.20;99.90
25248;DHT22;13191;47.472;11.214;2023-05-20T10:23:28;19.50;99.90
25248;DHT22;13191;47.472;11.214;2023-05-20T10:25:54;19.70;99.90
25248;DHT22;13191;47.472;11.214;2023-05-20T10:28:26;19.80;99.90
25248;DHT22;13191;47.472;11.214;2023-05-20T10:30:52;19.90;99.90
25248;DHT22;13191;47.472;11.214;2023-05-20T10:33:18;20.00;99.90
25248;DHT22;13191;47.472;11.214;2023-05-20T10:35:49;20.10;99.90
25248;DHT22;13191;47.472;11.214;2023-05-20T10:38:16;20.20;99.90
25248;DHT22;13191;47.472;11.214;2023-05-20T10:40:42;20.20;99.90
25248;DHT22;13191;47.472;11.214;2023-05-20T10:43:11;20.30;99.90
25248;DHT22;13191;47.472;11.214;2023-05-20T10:45:46;20.30;99.90
25248;DHT22;13191;47.472;11.214;2023-05-20T10:48:18;20.40;99.90
25248;DHT22;13191;47.472;11.214;2023-05-20T10:50:44;20.40;99.90
25248;DHT22;13191;47.472;11.214;2023-05-20T10:53:11;20.30;99.90
25248;DHT22;13191;47.472;11.214;2023-05-20T10:55:37;20.40;99.90
25248;DHT22;13191;47.472;11.214;2023-05-20T10:58:03;20.50;99.90
25248;DHT22;13191;47.472;11.214;2023-05-20T11:00:29;20.70;99.90
25248;DHT22;13191;47.472;11.214;2023-05-20T11:02:55;20.70;99.90
25248;DHT22;13191;47.472;11.214;2023-05-20T11:05:20;20.80;99.90
25248;DHT22;13191;47.472;11.214;2023-05-20T11:07:46;20.90;99.90
25248;DHT22;13191;47.472;11.214;2023-05-20T11:10:12;21.00;99.90
25248;DHT22;13191;47.472;11.214;2023-05-20T11:12:37;21.10;99.90
25248;DHT22;13191;47.472;11.214;2023-05-20T11:15:03;21.10;99.90
25248;DHT22;13191;47.472;11.214;2023-05-20T11:17:29;21.10;99.90
25248;DHT22;13191;47.472;11.214;2023-05-20T11:19:54;21.00;99.90
25248;DHT22;13191;47.472;11.214;2023-05-20T11:22:20;21.00;99.90
25248;DHT22;13191;47.472;11.214;2023-05-20T11:24:46;21.00;99.90
25248;DHT22;13191;47.472;11.214;2023-05-20T11:27:11;21.00;99.90
25248;DHT22;13191;47.472;11.214;2023-05-20T11:29:37;21.10;99.90
25248;DHT22;13191;47.472;11.214;2023-05-20T11:32:03;21.20;99.90
25248;DHT22;13191;47.472;11.214;2023-05-20T11:34:33;21.30;99.90
25248;DHT22;13191;47.472;11.214;2023-05-20T11:36:58;21.50;99.90
25248;DHT22;13191;47.472;11.214;2023-05-20T11:39:24;21.60;99.90
25248;DHT22;13191;47.472;11.214;2023-05-20T11:41:51;21.70;99.90
25248;DHT22;13191;47.472;11.214;2023-05-20T11:44:18;21.70;99.90
25248;DHT22;13191;47.472;11.214;2023-05-20T11:46:47;21.80;99.90
25248;DHT22;13191;47.472;11.214;2023-05-20T11:49:13;21.80;99.90
25248;DHT22;13191;47.472;11.214;2023-05-20T11:51:38;21.80;99.90
25248;DHT22;13191;47.472;11.214;2023-05-20T11:54:05;21.70;99.90
25248;DHT22;13191;47.472;11.214;2023-05-20T11:56:37;21.70;99.90
25248;DHT22;13191;47.472;11.214;2023-05-20T11:59:07;21.70;99.90
25248;DHT22;13191;47.472;11.214;2023-05-20T12:01:37;21.70;99.90
25248;DHT22;13191;47.472;11.214;2023-05-20T12:04:05;21.70;99.90
25248;DHT22;13191;47.472;11.214;2023-05-20T12:06:31;21.70;99.90
25248;DHT22;13191;47.472;11.214;2023-05-20T12:08:57;21.70;99.90
25248;DHT22;13191;47.472;11.214;2023-05-20T12:11:23;21.80;99.90
25248;DHT22;13191;47.472;11.214;2023-05-20T12:13:49;21.80;99.90
25248;DHT22;13191;47.472;11.214;2023-05-20T12:16:16;21.90;99.90
25248;DHT22;13191;47.472;11.214;2023-05-20T12:18:41;21.80;99.90
25248;DHT22;13191;47.472;11.214;2023-05-20T12:21:07;21.90;99.90
25248;DHT22;13191;47.472;11.214;2023-05-20T12:23:33;21.90;99.90
25248;DHT22;13191;47.472;11.214;2023-05-20T12:25:58;22.00;99.90
25248;DHT22;13191;47.472;11.214;2023-05-20T12:28:24;22.00;99.90
25248;DHT22;13191;47.472;11.214;2023-05-20T12:30:50;21.90;99.90
25248;DHT22;13191;47.472;11.214;2023-05-20T12:33:16;22.00;99.90
25248;DHT22;13191;47.472;11.214;2023-05-20T12:35:42;22.10;99.90
25248;DHT22;13191;47.472;11.214;2023-05-20T12:38:08;22.10;99.90
25248;DHT22;13191;47.472;11.214;2023-05-20T12:40:35;22.10;99.90
25248;DHT22;13191;47.472;11.214;2023-05-20T12:43:01;22.20;99.90
25248;DHT22;13191;47.472;11.214;2023-05-20T12:45:27;22.30;99.90
25248;DHT22;13191;47.472;11.214;2023-05-20T12:47:53;22.30;99.90
25248;DHT22;13191;47.472;11.214;2023-05-20T12:50:19;22.20;99.90
25248;DHT22;13191;47.472;11.214;2023-05-20T12:52:44;22.30;99.90
25248;DHT22;13191;47.472;11.214;2023-05-20T12:55:10;22.30;99.90
25248;DHT22;13191;47.472;11.214;2023-05-20T12:57:39;22.40;99.90
25248;DHT22;13191;47.472;11.214;2023-05-20T13:00:05;22.40;99.90
25248;DHT22;13191;47.472;11.214;2023-05-20T13:02:32;22.40;99.90
25248;DHT22;13191;47.472;11.214;2023-05-20T13:04:58;22.50;99.90
25248;DHT22;13191;47.472;11.214;2023-05-20T13:07:23;22.50;99.90
25248;DHT22;13191;47.472;11.214;2023-05-20T13:09:51;22.50;99.90
25248;DHT22;13191;47.472;11.214;2023-05-20T13:12:16;22.60;99.90
25248;DHT22;13191;47.472;11.214;2023-05-20T13:14:42;22.70;99.90
25248;DHT22;13191;47.472;11.214;2023-05-20T13:17:08;22.80;99.90
25248;DHT22;13191;47.472;11.214;2023-05-20T13:19:33;22.80;99.60
25248;DHT22;13191;47.472;11.214;2023-05-20T13:21:59;22.80;99.90
25248;DHT22;13191;47.472;11.214;2023-05-20T13:24:24;22.70;99.90
25248;DHT22;13191;47.472;11.214;2023-05-20T13:26:50;22.50;99.10
25248;DHT22;13191;47.472;11.214;2023-05-20T13:29:16;22.50;99.90
25248;DHT22;13191;47.472;11.214;2023-05-20T13:31:41;22.50;99.90
25248;DHT22;13191;47.472;11.214;2023-05-20T13:34:07;22.60;99.90
25248;DHT22;13191;47.472;11.214;2023-05-20T13:36:32;22.70;99.90
25248;DHT22;13191;47.472;11.214;2023-05-20T13:38:58;22.80;99.90
25248;DHT22;13191;47.472;11.214;2023-05-20T13:41:24;23.00;99.90
25248;DHT22;13191;47.472;11.214;2023-05-20T13:43:50;23.10;99.90
25248;DHT22;13191;47.472;11.214;2023-05-20T13:46:16;23.30;99.90
25248;DHT22;13191;47.472;11.214;2023-05-20T13:48:42;23.40;99.90
25248;DHT22;13191;47.472;11.214;2023-05-20T13:51:07;23.40;99.90
25248;DHT22;13191;47.472;11.214;2023-05-20T13:53:33;23.40;99.90
25248;DHT22;13191;47.472;11.214;2023-05-20T13:55:58;23.50;99.90
25248;DHT22;13191;47.472;11.214;2023-05-20T13:58:24;23.50;99.90
25248;DHT22;13191;47.472;11.214;2023-05-20T14:00:49;23.40;99.80
25248;DHT22;13191;47.472;11.214;2023-05-20T14:03:15;23.40;99.90
25248;DHT22;13191;47.472;11.214;2023-05-20T14:05:41;23.30;99.90
25248;DHT22;13191;47.472;11.214;2023-05-20T14:08:06;23.30;99.90
25248;DHT22;13191;47.472;11.214;2023-05-20T14:10:32;23.30;99.90
25248;DHT22;13191;47.472;11.214;2023-05-20T14:12:57;23.30;99.90
25248;DHT22;13191;47.472;11.214;2023-05-20T14:15:24;23.40;99.90
25248;DHT22;13191;47.472;11.214;2023-05-20T14:17:50;23.50;99.90
25248;DHT22;13191;47.472;11.214;2023-05-20T14:20:15;23.40;99.90
25248;DHT22;13191;47.472;11.214;2023-05-20T14:22:41;23.50;99.90
25248;DHT22;13191;47.472;11.214;2023-05-20T14:25:06;23.40;99.80
25248;DHT22;13191;47.472;11.214;2023-05-20T14:27:33;23.30;99.30
25248;DHT22;13191;47.472;11.214;2023-05-20T14:29:58;23.30;99.30
25248;DHT22;13191;47.472;11.214;2023-05-20T14:32:24;23.30;99.60
25248;DHT22;13191;47.472;11.214;2023-05-20T14:34:50;23.20;99.70
25248;DHT22;13191;47.472;11.214;2023-05-20T14:37:23;23.20;99.90
25248;DHT22;13191;47.472;11.214;2023-05-20T14:39:48;23.20;99.90
25248;DHT22;13191;47.472;11.214;2023-05-20T14:42:14;23.30;99.40
25248;DHT22;13191;47.472;11.214;2023-05-20T14:44:39;23.40;99.30
25248;DHT22;13191;47.472;11.214;2023-05-20T14:47:05;23.40;99.30
25248;DHT22;13191;47.472;11.214;2023-05-20T14:49:30;23.30;98.60
25248;DHT22;13191;47.472;11.214;2023-05-20T14:51:57;23.40;99.50
25248;DHT22;13191;47.472;11.214;2023-05-20T14:54:22;23.30;99.50
25248;DHT22;13191;47.472;11.214;2023-05-20T14:56:49;23.30;99.90
25248;DHT22;13191;47.472;11.214;2023-05-20T14:59:16;23.20;99.40
25248;DHT22;13191;47.472;11.214;2023-05-20T15:01:42;23.10;99.30
25248;DHT22;13191;47.472;11.214;2023-05-20T15:04:07;23.00;98.70
25248;DHT22;13191;47.472;11.214;2023-05-20T15:06:33;22.80;99.00
25248;DHT22;13191;47.472;11.214;2023-05-20T15:09:03;22.80;99.00
25248;DHT22;13191;47.472;11.214;2023-05-20T15:11:29;22.70;99.40
25248;DHT22;13191;47.472;11.214;2023-05-20T15:13:54;22.70;99.80
25248;DHT22;13191;47.472;11.214;2023-05-20T15:16:20;22.70;99.90
25248;DHT22;13191;47.472;11.214;2023-05-20T15:18:49;22.80;99.90
25248;DHT22;13191;47.472;11.214;2023-05-20T15:21:17;22.80;99.50
25248;DHT22;13191;47.472;11.214;2023-05-20T15:23:50;22.80;99.70
25248;DHT22;13191;47.472;11.214;2023-05-20T15:26:15;22.90;99.90
25248;DHT22;13191;47.472;11.214;2023-05-20T15:28:41;22.80;99.90